sensor_id;sensor_type;location;lat;lon;timestamp;temperature;humidity
17307;DHT22;8771;48.048;7.682;2023-06-14T00:04:58;18.50;44.20
17307;DHT22;8771;48.048;7.682;2023-06-14T00:10:01;18.40;44.30
17307;DHT22;8771;48.048;7.682;2023-06-14T00:15:06;18.30;44.20
17307;DHT22;8771;48.048;7.682;2023-06-14T00:20:11;18.30;44.30
17307;DHT22;8771;48.048;7.682;2023-06-14T00:25:12;18.20;44.30
17307;DHT22;8771;48.048;7.682;2023-06-14T00:30:16;18.10;44.40
17307;DHT22;8771;48.048;7.682;2023-06-14T00:35:18;18.10;44.50
17307;DHT22;8771;48.048;7.682;2023-06-14T00:40:20;18.00;44.40
17307;DHT22;8771;48.048;7.682;2023-06-14T00:45:23;18.00;44.50
17307;DHT22;8771;48.048;7.682;2023-06-14T00:50:25;17.90;44.50
17307;DHT22;8771;48.048;7.682;2023-06-14T00:55:27;17.80;44.50
17307;DHT22;8771;48.048;7.682;2023-06-14T01:05:32;17.70;44.10
17307;DHT22;8771;48.048;7.682;2023-06-14T01:10:40;17.60;44.70
17307;DHT22;8771;48.048;7.682;2023-06-14T01:15:50;17.50;44.80
17307;DHT22;8771;48.048;7.682;2023-06-14T01:20:52;17.40;44.80
17307;DHT22;8771;48.048;7.682;2023-06-14T01:25:57;17.30;44.80
17307;DHT22;8771;48.048;7.682;2023-06-14T01:31:00;17.20;44.90
17307;DHT22;8771;48.048;7.682;2023-06-14T01:36:05;17.10;45.00
17307;DHT22;8771;48.048;7.682;2023-06-14T01:41:10;17.00;45.10
17307;DHT22;8771;48.048;7.682;2023-06-14T01:46:13;16.90;45.20
17307;DHT22;8771;48.048;7.682;2023-06-14T01:51:16;16.80;45.20
17307;DHT22;8771;48.048;7.682;2023-06-14T01:56:19;16.60;45.20
17307;DHT22;8771;48.048;7.682;2023-06-14T02:01:22;16.60;45.30
17307;DHT22;8771;48.048;7.682;2023-06-14T02:06:26;16.60;45.30
17307;DHT22;8771;48.048;7.682;2023-06-14T02:11:29;16.50;45.30
17307;DHT22;8771;48.048;7.682;2023-06-14T02:16:31;16.40;45.30
17307;DHT22;8771;48.048;7.682;2023-06-14T02:21:36;16.30;45.50
17307;DHT22;8771;48.048;7.682;2023-06-14T02:26:39;16.10;46.20
17307;DHT22;8771;48.048;7.682;2023-06-14T02:31:42;16.00;45.70
17307;DHT22;8771;48.048;7.682;2023-06-14T02:36:44;16.00;45.70
17307;DHT22;8771;48.048;7.682;2023-06-14T02:41:47;15.90;45.70
17307;DHT22;8771;48.048;7.682;2023-06-14T02:46:49;15.90;45.70
17307;DHT22;8771;48.048;7.682;2023-06-14T02:51:51;15.90;45.70
17307;DHT22;8771;48.048;7.682;2023-06-14T02:56:54;15.90;45.70
17307;DHT22;8771;48.048;7.682;2023-06-14T03:01:56;15.90;45.70
17307;DHT22;8771;48.048;7.682;2023-06-14T03:06:58;15.90;45.70
17307;DHT22;8771;48.048;7.682;2023-06-14T03:12:01;15.90;45.70
17307;DHT22;8771;48.048;7.682;2023-06-14T03:17:04;15.80;45.70
17307;DHT22;8771;48.048;7.682;2023-06-14T03:22:06;15.80;45.70
17307;DHT22;8771;48.048;7.682;2023-06-14T03:27:09;15.80;45.70
17307;DHT22;8771;48.048;7.682;2023-06-14T03:32:11;15.80;45.70
17307;DHT22;8771;48.048;7.682;2023-06-14T03:37:13;15.80;45.70
17307;DHT22;8771;48.048;7.682;2023-06-14T03:42:16;15.70;45.70
17307;DHT22;8771;48.048;7.682;2023-06-14T03:47:18;15.70;45.80
17307;DHT22;8771;48.048;7.682;2023-06-14T03:52:20;15.70;45.80
17307;DHT22;8771;48.048;7.682;2023-06-14T03:57:25;15.70;45.80
17307;DHT22;8771;48.048;7.682;2023-06-14T04:02:27;15.60;45.90
17307;DHT22;8771;48.048;7.682;2023-06-14T04:07:30;15.60;45.90
17307;DHT22;8771;48.048;7.682;2023-06-14T04:12:33;15.60;45.90
17307;DHT22;8771;48.048;7.682;2023-06-14T04:17:36;15.60;45.90
17307;DHT22;8771;48.048;7.682;2023-06-14T04:22:38;15.60;45.90
17307;DHT22;8771;48.048;7.682;2023-06-14T04:27:43;15.70;45.90
17307;DHT22;8771;48.048;7.682;2023-06-14T04:32:44;15.70;45.90
17307;DHT22;8771;48.048;7.682;2023-06-14T04:37:47;15.70;45.90
17307;DHT22;8771;48.048;7.682;2023-06-14T04:42:50;15.70;45.90
17307;DHT22;8771;48.048;7.682;2023-06-14T04:47:53;15.90;45.90
17307;DHT22;8771;48.048;7.682;2023-06-14T04:52:57;16.20;45.70
17307;DHT22;8771;48.048;7.682;2023-06-14T04:58:01;16.60;45.40
17307;DHT22;8771;48.048;7.682;2023-06-14T05:03:03;16.90;45.20
17307;DHT22;8771;48.048;7.682;2023-06-14T05:08:06;17.20;45.00
17307;DHT22;8771;48.048;7.682;2023-06-14T05:13:10;17.60;44.70
17307;DHT22;8771;48.048;7.682;2023-06-14T05:18:12;17.90;44.40
17307;DHT22;8771;48.048;7.682;2023-06-14T05:23:15;18.30;44.20
17307;DHT22;8771;48.048;7.682;2023-06-14T05:28:18;18.70;44.00
17307;DHT22;8771;48.048;7.682;2023-06-14T05:33:21;18.90;44.00
17307;DHT22;8771;48.048;7.682;2023-06-14T05:38:23;19.10;43.90
17307;DHT22;8771;48.048;7.682;2023-06-14T05:43:27;19.40;43.80
17307;DHT22;8771;48.048;7.682;2023-06-14T05:48:29;19.70;43.60
17307;DHT22;8771;48.048;7.682;2023-06-14T05:53:31;20.10;43.40
17307;DHT22;8771;48.048;7.682;2023-06-14T05:58:35;20.40;43.30
17307;DHT22;8771;48.048;7.682;2023-06-14T06:03:37;20.70;43.10
17307;DHT22;8771;48.048;7.682;2023-06-14T06:08:39;21.10;43.00
17307;DHT22;8771;48.048;7.682;2023-06-14T06:13:42;21.40;42.90
17307;DHT22;8771;48.048;7.682;2023-06-14T06:18:44;21.80;42.80
17307;DHT22;8771;48.048;7.682;2023-06-14T06:23:46;22.10;42.70
17307;DHT22;8771;48.048;7.682;2023-06-14T06:28:49;22.40;42.60
17307;DHT22;8771;48.048;7.682;2023-06-14T06:33:51;22.70;42.50
17307;DHT22;8771;48.048;7.682;2023-06-14T06:38:54;23.00;42.50
17307;DHT22;8771;48.048;7.682;2023-06-14T06:43:57;23.30;42.30
17307;DHT22;8771;48.048;7.682;2023-06-14T06:48:59;23.70;42.30
17307;DHT22;8771;48.048;7.682;2023-06-14T06:54:01;23.90;42.20
17307;DHT22;8771;48.048;7.682;2023-06-14T06:59:05;24.20;42.10
17307;DHT22;8771;48.048;7.682;2023-06-14T07:04:07;24.40;42.10
17307;DHT22;8771;48.048;7.682;2023-06-14T07:09:09;24.50;42.10
17307;DHT22;8771;48.048;7.682;2023-06-14T07:14:14;24.80;42.10
17307;DHT22;8771;48.048;7.682;2023-06-14T07:19:16;25.00;42.00
17307;DHT22;8771;48.048;7.682;2023-06-14T07:24:18;25.20;42.10
17307;DHT22;8771;48.048;7.682;2023-06-14T07:29:23;25.30;42.00
17307;DHT22;8771;48.048;7.682;2023-06-14T07:34:25;25.60;42.10
17307;DHT22;8771;48.048;7.682;2023-06-14T07:39:27;25.80;42.00
17307;DHT22;8771;48.048;7.682;2023-06-14T07:44:31;26.00;41.90
17307;DHT22;8771;48.048;7.682;2023-06-14T07:49:33;26.30;42.00
17307;DHT22;8771;48.048;7.682;2023-06-14T07:54:35;26.40;41.90
17307;DHT22;8771;48.048;7.682;2023-06-14T07:59:39;26.60;42.00
17307;DHT22;8771;48.048;7.682;2023-06-14T08:04:41;26.80;42.00
17307;DHT22;8771;48.048;7.682;2023-06-14T08:09:43;26.90;41.90
17307;DHT22;8771;48.048;7.682;2023-06-14T08:14:46;27.00;41.90
17307;DHT22;8771;48.048;7.682;2023-06-14T08:19:48;27.30;42.00
17307;DHT22;8771;48.048;7.682;2023-06-14T08:24:50;27.40;42.00
17307;DHT22;8771;48.048;7.682;2023-06-14T08:29:55;27.60;42.00
17307;DHT22;8771;48.048;7.682;2023-06-14T08:34:57;27.80;41.90
17307;DHT22;8771;48.048;7.682;2023-06-14T08:39:59;28.00;41.80
17307;DHT22;8771;48.048;7.682;2023-06-14T08:45:02;28.10;41.80
17307;DHT22;8771;48.048;7.682;2023-06-14T08:50:05;27.90;41.80
17307;DHT22;8771;48.048;7.682;2023-06-14T08:55:09;27.70;42.00
17307;DHT22;8771;48.048;7.682;2023-06-14T09:00:15;27.40;42.20
17307;DHT22;8771;48.048;7.682;2023-06-14T09:05:19;27.30;42.20
17307;DHT22;8771;48.048;7.682;2023-06-14T09:10:22;27.10;42.30
17307;DHT22;8771;48.048;7.682;2023-06-14T09:15:27;27.10;42.30
17307;DHT22;8771;48.048;7.682;2023-06-14T09:20:30;27.00;42.30
17307;DHT22;8771;48.048;7.682;2023-06-14T09:25:32;26.90;42.30
17307;DHT22;8771;48.048;7.682;2023-06-14T09:30:36;26.70;42.30
17307;DHT22;8771;48.048;7.682;2023-06-14T09:35:38;26.50;42.30
17307;DHT22;8771;48.048;7.682;2023-06-14T09:40:40;26.40;42.30
17307;DHT22;8771;48.048;7.682;2023-06-14T09:45:44;26.20;42.30
17307;DHT22;8771;48.048;7.682;2023-06-14T09:50:50;26.10;42.30
17307;DHT22;8771;48.048;7.682;2023-06-14T09:55:52;25.90;42.20
17307;DHT22;8771;48.048;7.682;2023-06-14T10:00:58;25.90;42.20
17307;DHT22;8771;48.048;7.682;2023-06-14T10:06:03;25.90;42.10
17307;DHT22;8771;48.048;7.682;2023-06-14T10:11:11;25.90;42.00
17307;DHT22;8771;48.048;7.682;2023-06-14T10:16:20;26.00;41.90
17307;DHT22;8771;48.048;7.682;2023-06-14T10:21:32;26.10;41.80
17307;DHT22;8771;48.048;7.682;2023-06-14T10:26:35;26.10;41.70
17307;DHT22;8771;48.048;7.682;2023-06-14T10:31:42;26.20;41.70
17307;DHT22;8771;48.048;7.682;2023-06-14T10:36:44;26.20;41.60
17307;DHT22;8771;48.048;7.682;2023-06-14T10:41:53;26.10;41.60
17307;DHT22;8771;48.048;7.682;2023-06-14T10:46:58;26.30;41.70
17307;DHT22;8771;48.048;7.682;2023-06-14T10:52:04;26.40;41.40
17307;DHT22;8771;48.048;7.682;2023-06-14T10:57:07;26.50;41.40
17307;DHT22;8771;48.048;7.682;2023-06-14T11:02:29;26.60;41.30
17307;DHT22;8771;48.048;7.682;2023-06-14T11:07:52;26.70;41.30
17307;DHT22;8771;48.048;7.682;2023-06-14T11:12:57;26.70;41.30
17307;DHT22;8771;48.048;7.682;2023-06-14T11:18:02;26.90;41.20
17307;DHT22;8771;48.048;7.682;2023-06-14T11:23:04;26.90;41.20
17307;DHT22;8771;48.048;7.682;2023-06-14T11:28:06;27.00;41.00
17307;DHT22;8771;48.048;7.682;2023-06-14T11:33:11;27.00;41.00
17307;DHT22;8771;48.048;7.682;2023-06-14T11:38:13;27.00;41.00
17307;DHT22;8771;48.048;7.682;2023-06-14T11:43:16;27.10;41.00
17307;DHT22;8771;48.048;7.682;2023-06-14T11:48:19;27.10;41.00
17307;DHT22;8771;48.048;7.682;2023-06-14T11:53:21;27.00;41.00
17307;DHT22;8771;48.048;7.682;2023-06-14T11:58:25;27.10;40.90
17307;DHT22;8771;48.048;7.682;2023-06-14T12:03:29;27.20;40.80
17307;DHT22;8771;48.048;7.682;2023-06-14T12:08:34;27.60;40.90
17307;DHT22;8771;48.048;7.682;2023-06-14T12:13:41;27.90;40.60
17307;DHT22;8771;48.048;7.682;2023-06-14T12:18:44;27.90;40.60
17307;DHT22;8771;48.048;7.682;2023-06-14T12:23:47;28.00;41.20
17307;DHT22;8771;48.048;7.682;2023-06-14T12:28:52;28.00;40.70
17307;DHT22;8771;48.048;7.682;2023-06-14T12:33:55;27.90;40.80
17307;DHT22;8771;48.048;7.682;2023-06-14T12:38:57;27.90;41.40
17307;DHT22;8771;48.048;7.682;2023-06-14T12:44:00;27.90;40.70
17307;DHT22;8771;48.048;7.682;2023-06-14T12:49:07;27.90;40.80
17307;DHT22;8771;48.048;7.682;2023-06-14T12:54:09;27.80;40.80
17307;DHT22;8771;48.048;7.682;2023-06-14T12:59:11;27.90;40.80
17307;DHT22;8771;48.048;7.682;2023-06-14T13:04:14;27.80;40.70
17307;DHT22;8771;48.048;7.682;2023-06-14T13:09:16;27.80;40.80
17307;DHT22;8771;48.048;7.682;2023-06-14T13:14:18;27.80;40.80
17307;DHT22;8771;48.048;7.682;2023-06-14T13:19:22;27.90;40.70
17307;DHT22;8771;48.048;7.682;2023-06-14T13:24:24;28.00;40.70
17307;DHT22;8771;48.048;7.682;2023-06-14T13:29:26;27.80;40.70
17307;DHT22;8771;48.048;7.682;2023-06-14T13:34:29;27.90;41.30
17307;DHT22;8771;48.048;7.682;2023-06-14T13:39:31;27.90;40.70
17307;DHT22;8771;48.048;7.682;2023-06-14T13:44:33;28.00;40.70
17307;DHT22;8771;48.048;7.682;2023-06-14T13:49:36;28.00;40.60
17307;DHT22;8771;48.048;7.682;2023-06-14T13:54:38;27.90;40.60
17307;DHT22;8771;48.048;7.682;2023-06-14T13:59:41;27.80;40.70
17307;DHT22;8771;48.048;7.682;2023-06-14T14:04:45;27.90;40.60
17307;DHT22;8771;48.048;7.682;2023-06-14T14:09:53;27.90;40.60
17307;DHT22;8771;48.048;7.682;2023-06-14T14:14:55;28.00;40.60
17307;DHT22;8771;48.048;7.682;2023-06-14T14:20:01;28.10;40.50
17307;DHT22;8771;48.048;7.682;2023-06-14T14:25:04;28.00;40.50
17307;DHT22;8771;48.048;7.682;2023-06-14T14:30:07;27.80;40.60
17307;DHT22;8771;48.048;7.682;2023-06-14T14:35:10;27.90;40.60
17307;DHT22;8771;48.048;7.682;2023-06-14T14:40:15;28.00;40.50
17307;DHT22;8771;48.048;7.682;2023-06-14T14:45:17;27.90;40.50
17307;DHT22;8771;48.048;7.682;2023-06-14T14:50:20;27.90;40.60
17307;DHT22;8771;48.048;7.682;2023-06-14T14:55:22;27.80;40.60
17307;DHT22;8771;48.048;7.682;2023-06-14T15:00:25;27.70;40.70
17307;DHT22;8771;48.048;7.682;2023-06-14T15:05:28;27.60;40.60
17307;DHT22;8771;48.048;7.682;2023-06-14T15:10:30;27.60;40.60
17307;DHT22;8771;48.048;7.682;2023-06-14T15:15:32;27.50;40.60
17307;DHT22;8771;48.048;7.682;2023-06-14T15:20:35;27.50;40.60
17307;DHT22;8771;48.048;7.682;2023-06-14T15:25:37;27.50;40.60
17307;DHT22;8771;48.048;7.682;2023-06-14T15:30:39;27.50;40.60
17307;DHT22;8771;48.048;7.682;2023-06-14T15:35:43;27.60;40.50
17307;DHT22;8771;48.048;7.682;2023-06-14T15:40:44;27.60;40.50
17307;DHT22;8771;48.048;7.682;2023-06-14T15:45:46;27.60;40.50
17307;DHT22;8771;48.048;7.682;2023-06-14T15:50:50;27.70;40.60
17307;DHT22;8771;48.048;7.682;2023-06-14T15:55:51;27.70;40.50
17307;DHT22;8771;48.048;7.682;2023-06-14T16:00:53;27.60;40.50
17307;DHT22;8771;48.048;7.682;2023-06-14T16:05:57;27.50;40.50
17307;DHT22;8771;48.048;7.682;2023-06-14T16:10:59;27.40;40.60
17307;DHT22;8771;48.048;7.682;2023-06-14T16:16:01;27.30;40.60
17307;DHT22;8771;48.048;7.682;2023-06-14T16:21:04;27.30;40.70
17307;DHT22;8771;48.048;7.682;2023-06-14T16:26:11;27.10;40.70
17307;DHT22;8771;48.048;7.682;2023-06-14T16:31:13;27.10;40.70
17307;DHT22;8771;48.048;7.682;2023-06-14T16:36:18;26.90;40.60
17307;DHT22;8771;48.048;7.682;2023-06-14T16:41:20;26.90;40.60
17307;DHT22;8771;48.048;7.682;2023-06-14T16:46:28;27.00;40.70
17307;DHT22;8771;48.048;7.682;2023-06-14T16:51:32;27.00;40.60
17307;DHT22;8771;48.048;7.682;2023-06-14T16:56:35;26.90;40.60
17307;DHT22;8771;48.048;7.682;2023-06-14T17:01:37;26.80;40.70
17307;DHT22;8771;48.048;7.682;2023-06-14T17:06:40;26.70;40.80
17307;DHT22;8771;48.048;7.682;2023-06-14T17:11:42;26.60;40.80
17307;DHT22;8771;48.048;7.682;2023-06-14T17:16:44;26.50;40.90
17307;DHT22;8771;48.048;7.682;2023-06-14T17:21:47;26.50;40.90
17307;DHT22;8771;48.048;7.682;2023-06-14T17:26:52;26.40;40.90
17307;DHT22;8771;48.048;7.682;2023-06-14T17:31:54;26.40;41.00
17307;DHT22;8771;48.048;7.682;2023-06-14T17:36:58;26.30;40.90
17307;DHT22;8771;48.048;7.682;2023-06-14T17:42:00;26.30;41.00
17307;DHT22;8771;48.048;7.682;2023-06-14T17:47:02;26.20;41.00
17307;DHT22;8771;48.048;7.682;2023-06-14T17:52:06;26.00;41.10
17307;DHT22;8771;48.048;7.682;2023-06-14T17:57:08;25.90;41.10
17307;DHT22;8771;48.048;7.682;2023-06-14T18:02:12;25.80;41.10
17307;DHT22;8771;48.048;7.682;2023-06-14T18:07:16;25.70;41.20
17307;DHT22;8771;48.048;7.682;2023-06-14T18:12:18;25.60;41.20
17307;DHT22;8771;48.048;7.682;2023-06-14T18:17:19;25.60;41.30
17307;DHT22;8771;48.048;7.682;2023-06-14T18:22:23;25.50;41.30
17307;DHT22;8771;48.048;7.682;2023-06-14T18:27:25;25.40;41.30
17307;DHT22;8771;48.048;7.682;2023-06-14T18:32:27;25.30;41.30
17307;DHT22;8771;48.048;7.682;2023-06-14T18:37:32;25.20;41.40
17307;DHT22;8771;48.048;7.682;2023-06-14T18:42:34;25.10;41.40
17307;DHT22;8771;48.048;7.682;2023-06-14T18:47:36;25.00;41.50
17307;DHT22;8771;48.048;7.682;2023-06-14T18:52:39;24.90;41.50
17307;DHT22;8771;48.048;7.682;2023-06-14T18:57:41;24.80;41.60
17307;DHT22;8771;48.048;7.682;2023-06-14T19:02:43;24.80;41.70
17307;DHT22;8771;48.048;7.682;2023-06-14T19:07:46;24.60;41.70
17307;DHT22;8771;48.048;7.682;2023-06-14T19:12:49;24.50;41.80
17307;DHT22;8771;48.048;7.682;2023-06-14T19:17:55;24.40;41.80
17307;DHT22;8771;48.048;7.682;2023-06-14T19:22:58;24.30;41.90
17307;DHT22;8771;48.048;7.682;2023-06-14T19:28:03;24.20;41.90
17307;DHT22;8771;48.048;7.682;2023-06-14T19:33:07;24.10;42.00
17307;DHT22;8771;48.048;7.682;2023-06-14T19:38:10;24.10;42.00
17307;DHT22;8771;48.048;7.682;2023-06-14T19:43:13;24.00;41.90
17307;DHT22;8771;48.048;7.682;2023-06-14T19:48:15;23.90;42.00
17307;DHT22;8771;48.048;7.682;2023-06-14T19:53:19;23.80;42.00
17307;DHT22;8771;48.048;7.682;2023-06-14T19:58:21;23.70;42.00
17307;DHT22;8771;48.048;7.682;2023-06-14T20:03:23;23.70;42.10
17307;DHT22;8771;48.048;7.682;2023-06-14T20:08:29;23.60;42.10
17307;DHT22;8771;48.048;7.682;2023-06-14T20:13:31;23.50;42.10
17307;DHT22;8771;48.048;7.682;2023-06-14T20:18:33;23.40;42.10
17307;DHT22;8771;48.048;7.682;2023-06-14T20:23:39;23.30;42.10
17307;DHT22;8771;48.048;7.682;2023-06-14T20:28:41;23.20;42.20
17307;DHT22;8771;48.048;7.682;2023-06-14T20:33:43;23.20;42.20
17307;DHT22;8771;48.048;7.682;2023-06-14T20:38:47;23.10;42.20
17307;DHT22;8771;48.048;7.682;2023-06-14T20:43:49;23.10;42.20
17307;DHT22;8771;48.048;7.682;2023-06-14T20:48:53;23.00;42.20
17307;DHT22;8771;48.048;7.682;2023-06-14T20:53:57;23.00;42.30
17307;DHT22;8771;48.048;7.682;2023-06-14T20:58:59;22.80;42.30
17307;DHT22;8771;48.048;7.682;2023-06-14T21:04:01;22.80;42.40
17307;DHT22;8771;48.048;7.682;2023-06-14T21:09:05;22.70;42.50
17307;DHT22;8771;48.048;7.682;2023-06-14T21:14:08;22.60;42.50
17307;DHT22;8771;48.048;7.682;2023-06-14T21:19:10;22.60;42.50
17307;DHT22;8771;48.048;7.682;2023-06-14T21:24:13;22.50;42.50
17307;DHT22;8771;48.048;7.682;2023-06-14T21:29:15;22.50;42.60
17307;DHT22;8771;48.048;7.682;2023-06-14T21:34:17;22.40;42.50
17307;DHT22;8771;48.048;7.682;2023-06-14T21:39:20;22.50;42.60
17307;DHT22;8771;48.048;7.682;2023-06-14T21:44:22;22.60;43.10
17307;DHT22;8771;48.048;7.682;2023-06-14T21:49:24;22.60;42.50
17307;DHT22;8771;48.048;7.682;2023-06-14T21:54:27;22.70;43.00
17307;DHT22;8771;48.048;7.682;2023-06-14T21:59:29;22.70;42.40
17307;DHT22;8771;48.048;7.682;2023-06-14T22:04:31;22.70;42.50
17307;DHT22;8771;48.048;7.682;2023-06-14T22:09:34;22.60;42.50
17307;DHT22;8771;48.048;7.682;2023-06-14T22:14:36;22.60;42.50
17307;DHT22;8771;48.048;7.682;2023-06-14T22:19:39;22.60;42.60
17307;DHT22;8771;48.048;7.682;2023-06-14T22:24:43;22.60;42.60
17307;DHT22;8771;48.048;7.682;2023-06-14T22:29:46;22.50;42.70
17307;DHT22;8771;48.048;7.682;2023-06-14T22:34:48;22.40;42.90
17307;DHT22;8771;48.048;7.682;2023-06-14T22:39:51;22.30;43.00
17307;DHT22;8771;48.048;7.682;2023-06-14T22:44:53;22.20;43.00
17307;DHT22;8771;48.048;7.682;2023-06-14T22:49:55;22.10;43.10
17307;DHT22;8771;48.048;7.682;2023-06-14T22:54:59;22.00;43.20
17307;DHT22;8771;48.048;7.682;2023-06-14T23:00:01;21.90;43.20
17307;DHT22;8771;48.048;7.682;2023-06-14T23:05:07;21.80;43.30
17307;DHT22;8771;48.048;7.682;2023-06-14T23:10:11;21.70;43.50
17307;DHT22;8771;48.048;7.682;2023-06-14T23:15:13;21.60;43.60
17307;DHT22;8771;48.048;7.682;2023-06-14T23:20:16;21.50;43.70
17307;DHT22;8771;48.048;7.682;2023-06-14T23:25:19;21.40;43.80
17307;DHT22;8771;48.048;7.682;2023-06-14T23:30:21;21.20;43.80
17307;DHT22;8771;48.048;7.682;2023-06-14T23:35:27;21.10;43.90
17307;DHT22;8771;48.048;7.682;2023-06-14T23:40:30;21.00;44.00
17307;DHT22;8771;48.048;7.682;2023-06-14T23:45:33;20.90;44.20
17307;DHT22;8771;48.048;7.682;2023-06-14T23:50:35;20.70;44.30
17307;DHT22;8771;48.048;7.682;2023-06-14T23:55:39;20.60;44.40
